This is the latest recevied weather packets stored in our database for station/object WX2NJ-13. If no packets are shown the sender has not sent any weather packets the latest 10 day(s).
| Time | Temp. | Humidity | Pressure | Rain* | Wind** | Luminosity | Snow |
|---|---|---|---|---|---|---|---|
| 1777827264 | 15° C | 38% | 1013 hPa | 0 mm | 0.45 m/s, 252° | - | - |
| 1777826966 | 15° C | 36% | 1013.1 hPa | 0 mm | 1.79 m/s, 235° | - | - |
| 1777826664 | 15° C | 38% | 1013.1 hPa | 0 mm | 1.34 m/s, 20° | - | - |
| 1777826366 | 15° C | 40% | 1013.2 hPa | 0 mm | 0.89 m/s, 345° | - | - |
| 1777826067 | 14.44° C | 39% | 1013.2 hPa | 0 mm | 1.34 m/s, 186° | - | - |
| 1777825766 | 14.44° C | 40% | 1013.3 hPa | 0 mm | 1.34 m/s, 245° | - | - |
| 1777825467 | 13.89° C | 41% | 1013.3 hPa | 0 mm | 0.89 m/s, 6° | - | - |
| 1777825169 | 13.89° C | 40% | 1013.4 hPa | 0 mm | 1.34 m/s, 326° | - | - |
| 1777824867 | 13.89° C | 41% | 1013.4 hPa | 0 mm | 0 m/s | - | - |
| 1777824569 | 13.89° C | 42% | 1013.4 hPa | 0 mm | 0.89 m/s, 124° | - | - |
| 1777824270 | 13.89° C | 42% | 1013.5 hPa | 0 mm | 0.89 m/s, 173° | - | - |
| 1777823968 | 13.33° C | 41% | 1013.5 hPa | 0 mm | 0.89 m/s, 298° | - | - |
| 1777823670 | 13.33° C | 43% | 1013.6 hPa | 0 mm | 1.34 m/s, 238° | - | - |
| 1777823371 | 13.33° C | 45% | 1013.6 hPa | 0 mm | 0.45 m/s, 273° | - | - |
| 1777823070 | 13.33° C | 41% | 1013.6 hPa | 0 mm | 0.89 m/s, 52° | - | - |
| 1777822771 | 13.33° C | 43% | 1013.7 hPa | 0 mm | 0.89 m/s, 280° | - | - |
| 1777822472 | 13.33° C | 42% | 1013.7 hPa | 0 mm | 1.79 m/s, 266° | - | - |
| 1777822171 | 13.89° C | 43% | 1013.7 hPa | 0 mm | 0.45 m/s, 49° | - | - |
| 1777821872 | 13.89° C | 41% | 1013.7 hPa | 0 mm | 0.89 m/s, 181° | - | - |
| 1777821574 | 13.89° C | 44% | 1013.7 hPa | 0 mm | 0.45 m/s, 201° | - | - |
| 1777821272 | 13.89° C | 42% | 1013.7 hPa | 0 mm | 1.34 m/s, 342° | - | - |
| 1777820973 | 13.89° C | 44% | 1013.7 hPa | 0 mm | 1.34 m/s, 293° | - | - |
| 1777820675 | 13.33° C | 43% | 1013.7 hPa | 0 mm | 0.89 m/s, 345° | - | - |
| 1777820373 | 13.89° C | 43% | 1013.6 hPa | 0 mm | 1.34 m/s, 295° | - | - |
| 1777820075 | 13.89° C | 44% | 1013.6 hPa | 0 mm | 0.89 m/s, 300° | - | - |
* Rain latest hour (hover to see other rain measurements)
** Current wind speed in m/s (hover to see current wind gust speed)